createdAt,value
2022-09-22T00:01:05.500Z,94356.47
2022-09-22T00:03:37.770Z,94358.69
2022-09-22T00:06:07.388Z,94359.06
2022-09-22T00:08:38.228Z,94354.03
2022-09-22T00:11:06.693Z,94361.06
2022-09-22T00:13:34.696Z,94345.69
2022-09-22T00:16:02.853Z,94353.16
2022-09-22T00:18:29.916Z,94355.53
2022-09-22T00:20:56.671Z,94343.16
2022-09-22T00:23:27.433Z,94348.09
2022-09-22T00:25:54.004Z,94345.13
2022-09-22T00:28:21.671Z,94346.88
2022-09-22T00:30:48.228Z,94341.59
2022-09-22T00:33:14.849Z,94351.66
2022-09-22T00:35:41.498Z,94342.59
2022-09-22T00:38:08.745Z,94343.72
2022-09-22T00:40:36.297Z,94350.56
2022-09-22T00:43:17.979Z,94343.25
2022-09-22T00:45:47.855Z,94348.03
2022-09-22T00:48:14.931Z,94350.16
2022-09-22T00:50:41.791Z,94351.88
2022-09-22T00:53:15.548Z,94344.69
2022-09-22T00:55:49.412Z,94351.78
2022-09-22T00:58:19.289Z,94351.31
2022-09-22T01:00:46.174Z,94340.91
2022-09-22T01:03:18.957Z,94338.53
2022-09-22T01:05:47.351Z,94328.75
2022-09-22T01:08:16.122Z,94332.28
2022-09-22T01:10:43.443Z,94331.09
2022-09-22T01:13:12.713Z,94334.81
2022-09-22T01:15:45.956Z,94336.59
2022-09-22T01:18:28.750Z,94333.84
2022-09-22T01:21:20.450Z,94328.38
2022-09-22T01:23:57.245Z,94331.16
2022-09-22T01:26:40.182Z,94324.16
2022-09-22T01:29:46.162Z,94329.66
2022-09-22T01:32:50.909Z,94329.13
2022-09-22T01:35:38.201Z,94323.28
2022-09-22T01:38:44.206Z,94318.19
2022-09-22T01:41:19.954Z,94315.56
2022-09-22T01:43:57.170Z,94315.34
2022-09-22T01:46:34.905Z,94321.72
2022-09-22T01:49:08.166Z,94323.53
2022-09-22T01:51:58.077Z,94321.09
2022-09-22T01:54:32.116Z,94313.88
2022-09-22T01:57:17.580Z,94319.66
2022-09-22T01:59:49.234Z,94317.00
2022-09-22T02:02:34.601Z,94320.41
2022-09-22T02:05:05.928Z,94322.75
2022-09-22T02:07:40.669Z,94324.53
2022-09-22T02:10:11.862Z,94325.75
2022-09-22T02:12:39.067Z,94324.00
2022-09-22T02:15:30.155Z,94328.22
2022-09-22T02:18:02.963Z,94331.59
2022-09-22T02:20:29.970Z,94318.75
2022-09-22T02:22:57.186Z,94320.22
2022-09-22T02:25:24.986Z,94319.09
2022-09-22T02:27:56.199Z,94321.44
2022-09-22T02:30:23.199Z,94310.47
2022-09-22T02:32:53.876Z,94323.31
2022-09-22T02:35:21.748Z,94320.16
2022-09-22T02:37:51.214Z,94314.59
2022-09-22T02:40:36.227Z,94319.09
2022-09-22T02:43:22.095Z,94318.38
2022-09-22T02:45:51.832Z,94328.84
2022-09-22T02:48:23.350Z,94321.84
2022-09-22T02:50:51.419Z,94321.16
2022-09-22T02:53:18.452Z,94325.84
2022-09-22T02:55:46.201Z,94333.19
2022-09-22T02:58:15.338Z,94335.84
2022-09-22T03:00:42.602Z,94334.09
2022-09-22T03:03:10.971Z,94331.44
2022-09-22T03:05:38.405Z,94335.69
2022-09-22T03:08:05.353Z,94343.84
2022-09-22T03:10:32.141Z,94343.88
2022-09-22T03:13:15.631Z,94338.25
2022-09-22T03:15:44.304Z,94329.91
2022-09-22T03:18:10.968Z,94335.69
2022-09-22T03:20:37.618Z,94325.50
2022-09-22T03:23:04.225Z,94334.06
2022-09-22T03:25:30.923Z,94341.91
2022-09-22T03:27:57.744Z,94332.94
2022-09-22T03:30:24.320Z,94344.75
2022-09-22T03:32:50.903Z,94341.91
2022-09-22T03:35:17.615Z,94345.81
2022-09-22T03:37:45.780Z,94339.34
2022-09-22T03:40:12.863Z,94344.13
2022-09-22T03:42:39.503Z,94342.28
2022-09-22T03:45:06.479Z,94342.59
2022-09-22T03:47:33.121Z,94342.84
2022-09-22T03:49:59.775Z,94335.56
2022-09-22T03:52:26.378Z,94332.66
2022-09-22T03:54:54.553Z,94337.06
2022-09-22T03:57:21.454Z,94341.56
2022-09-22T03:59:48.158Z,94335.97
2022-09-22T04:02:14.840Z,94342.44
2022-09-22T04:04:41.615Z,94346.84
2022-09-22T04:07:08.308Z,94340.84
2022-09-22T04:09:34.936Z,94344.78
2022-09-22T04:12:02.208Z,94348.03
2022-09-22T04:14:28.833Z,94346.66
2022-09-22T04:16:55.560Z,94353.78
2022-09-22T04:19:22.867Z,94353.72
2022-09-22T04:21:54.617Z,94352.38
2022-09-22T04:24:24.610Z,94354.34
2022-09-22T04:27:17.994Z,94347.63
2022-09-22T04:29:38.264Z,94348.69
2022-09-22T04:32:05.469Z,94341.25
2022-09-22T04:34:32.126Z,94345.34
2022-09-22T04:36:58.743Z,94349.69
2022-09-22T04:39:26.482Z,94346.38
2022-09-22T04:41:53.058Z,94346.22
2022-09-22T04:44:19.704Z,94343.22
2022-09-22T04:46:46.366Z,94348.03
2022-09-22T04:49:13.982Z,94348.16
2022-09-22T04:51:40.723Z,94352.44
2022-09-22T04:54:07.367Z,94345.47
2022-09-22T04:56:34.127Z,94349.72
2022-09-22T04:59:00.850Z,94354.88
2022-09-22T05:01:29.603Z,94345.56
2022-09-22T05:03:56.346Z,94343.56
2022-09-22T05:06:22.984Z,94345.88
2022-09-22T05:08:49.618Z,94354.75
2022-09-22T05:11:16.252Z,94346.91
2022-09-22T05:13:42.828Z,94350.22
2022-09-22T05:16:09.530Z,94350.63
2022-09-22T05:18:36.263Z,94351.41
2022-09-22T05:21:02.943Z,94353.16
2022-09-22T05:23:29.608Z,94359.44
2022-09-22T05:25:56.963Z,94356.13
2022-09-22T05:28:24.312Z,94361.16
2022-09-22T05:30:51.975Z,94354.63
2022-09-22T05:33:19.234Z,94355.19
2022-09-22T05:35:46.189Z,94354.25
2022-09-22T05:38:12.950Z,94352.97
2022-09-22T05:40:39.565Z,94355.72
2022-09-22T05:43:06.210Z,94357.50
2022-09-22T05:45:32.917Z,94360.59
2022-09-22T05:47:59.534Z,94359.91
2022-09-22T05:50:26.283Z,94352.47
2022-09-22T05:53:03.275Z,94362.78
2022-09-22T05:55:29.939Z,94361.59
2022-09-22T05:57:57.506Z,94363.25
2022-09-22T06:00:24.183Z,94357.00
2022-09-22T06:02:50.969Z,94363.22
2022-09-22T06:05:19.529Z,94355.19
2022-09-22T06:07:46.736Z,94362.88
2022-09-22T06:10:13.384Z,94363.78
2022-09-22T06:12:40.184Z,94368.41
2022-09-22T06:15:07.419Z,94361.16
2022-09-22T06:17:34.106Z,94359.03
2022-09-22T06:20:00.928Z,94368.66
2022-09-22T06:22:27.548Z,94368.16
2022-09-22T06:24:54.144Z,94374.75
2022-09-22T06:27:20.749Z,94369.59
2022-09-22T06:29:47.364Z,94370.25
2022-09-22T06:32:13.950Z,94365.91
2022-09-22T06:34:40.546Z,94366.31
2022-09-22T06:37:11.635Z,94368.56
2022-09-22T06:39:38.227Z,94367.31
2022-09-22T06:42:06.187Z,94365.00
2022-09-22T06:44:32.895Z,94365.91
2022-09-22T06:47:05.307Z,94367.59
2022-09-22T06:49:32.063Z,94360.28
2022-09-22T06:51:58.716Z,94372.16
2022-09-22T06:54:25.855Z,94376.47
2022-09-22T06:56:52.726Z,94367.44
2022-09-22T06:59:19.810Z,94365.41
2022-09-22T07:01:47.056Z,94374.63
2022-09-22T07:04:14.447Z,94376.03
2022-09-22T07:06:42.688Z,94372.41
2022-09-22T07:09:09.410Z,94373.03
2022-09-22T07:11:40.021Z,94370.06
2022-09-22T07:14:08.573Z,94376.34
2022-09-22T07:16:36.494Z,94373.50
2022-09-22T07:19:04.864Z,94373.63
2022-09-22T07:21:35.228Z,94356.94
2022-09-22T07:24:02.787Z,94364.97
2022-09-22T07:26:32.955Z,94359.31
2022-09-22T07:29:02.213Z,94355.19
2022-09-22T07:31:32.055Z,94363.19
2022-09-22T07:34:02.175Z,94368.63
2022-09-22T07:36:31.146Z,94363.38
2022-09-22T07:39:03.881Z,94374.09
2022-09-22T07:41:32.213Z,94375.78
2022-09-22T07:44:19.186Z,94376.91
2022-09-22T07:46:46.364Z,94364.16
2022-09-22T07:49:15.283Z,94369.63
2022-09-22T07:51:42.202Z,94372.78
2022-09-22T07:54:08.994Z,94360.72
2022-09-22T07:56:40.207Z,94361.66
2022-09-22T07:59:11.990Z,94358.44
2022-09-22T08:01:44.436Z,94364.81
2022-09-22T08:04:16.004Z,94359.97
2022-09-22T08:06:44.793Z,94365.88
2022-09-22T08:09:12.908Z,94366.34
2022-09-22T08:11:39.642Z,94370.78
2022-09-22T08:14:08.601Z,94368.97
2022-09-22T08:16:39.550Z,94375.16
2022-09-22T08:19:12.631Z,94365.94
2022-09-22T08:21:48.811Z,94368.16
2022-09-22T08:24:21.453Z,94362.84
2022-09-22T08:26:53.359Z,94349.38
2022-09-22T08:29:20.658Z,94349.03
2022-09-22T08:31:47.864Z,94340.63
2022-09-22T08:34:16.502Z,94341.63
2022-09-22T08:36:47.346Z,94353.03
2022-09-22T08:39:15.110Z,94345.50
2022-09-22T08:41:52.084Z,94347.34
2022-09-22T08:44:26.166Z,94346.00
2022-09-22T08:46:54.803Z,94337.84
2022-09-22T08:49:51.191Z,94341.44
2022-09-22T08:52:50.318Z,94337.91
2022-09-22T08:55:23.180Z,94341.53
2022-09-22T08:58:03.111Z,94333.25
2022-09-22T09:00:49.055Z,94332.59
2022-09-22T09:03:57.761Z,94330.63
2022-09-22T09:06:56.569Z,94334.56
2022-09-22T09:09:50.338Z,94336.31
2022-09-22T09:12:42.901Z,94340.44
2022-09-22T09:15:34.097Z,94342.09
2022-09-22T09:18:04.290Z,94334.72
2022-09-22T09:20:39.004Z,94328.03
2022-09-22T09:23:15.667Z,94328.13
2022-09-22T09:25:43.176Z,94332.16
2022-09-22T09:28:24.170Z,94322.03
2022-09-22T09:31:02.466Z,94320.13
2022-09-22T09:34:06.210Z,94308.16
2022-09-22T09:36:37.802Z,94315.53
2022-09-22T09:39:14.851Z,94313.66
2022-09-22T09:41:46.739Z,94317.56
2022-09-22T09:44:40.191Z,94309.41
2022-09-22T09:47:19.580Z,94310.19
2022-09-22T09:49:52.694Z,94310.63
2022-09-22T09:52:20.991Z,94309.69
2022-09-22T09:54:48.441Z,94309.41
2022-09-22T09:57:20.145Z,94300.34
2022-09-22T10:00:07.468Z,94306.13
2022-09-22T10:03:03.086Z,94301.41
2022-09-22T10:05:31.895Z,94293.69
2022-09-22T10:08:03.606Z,94295.41
2022-09-22T10:10:31.311Z,94296.09
2022-09-22T10:13:00.693Z,94301.41
2022-09-22T10:15:27.265Z,94302.50
2022-09-22T10:17:53.902Z,94296.00
2022-09-22T10:20:26.352Z,94299.00
2022-09-22T10:22:54.656Z,94297.41
2022-09-22T10:25:27.409Z,94300.88
2022-09-22T10:28:04.248Z,94301.34
2022-09-22T10:30:37.808Z,94286.47
2022-09-22T10:33:15.412Z,94290.41
2022-09-22T10:35:47.364Z,94292.78
2022-09-22T10:38:20.585Z,94282.13
2022-09-22T10:40:53.615Z,94285.13
2022-09-22T10:43:30.146Z,94272.84
2022-09-22T10:46:17.176Z,94273.97
2022-09-22T10:48:54.812Z,94277.56
2022-09-22T10:51:36.714Z,94275.16
2022-09-22T10:54:25.111Z,94277.84
2022-09-22T10:57:09.457Z,94270.13
2022-09-22T10:59:55.879Z,94270.44
2022-09-22T11:02:41.384Z,94269.22
2022-09-22T11:05:44.818Z,94270.41
2022-09-22T11:08:32.745Z,94263.50
2022-09-22T11:11:25.212Z,94259.47
2022-09-22T11:14:08.057Z,94261.97
2022-09-22T11:16:48.996Z,94262.69
2022-09-22T11:19:21.303Z,94265.31
2022-09-22T11:22:06.670Z,94253.97
2022-09-22T11:24:44.438Z,94246.25
2022-09-22T11:27:29.016Z,94238.25
2022-09-22T11:30:11.711Z,94232.47
2022-09-22T11:32:47.220Z,94236.28
2022-09-22T11:35:22.618Z,94229.34
2022-09-22T11:37:58.739Z,94231.31
2022-09-22T11:41:15.636Z,94236.59
2022-09-22T11:43:57.093Z,94240.47
2022-09-22T11:46:55.267Z,94242.47
2022-09-22T11:49:40.364Z,94234.19
2022-09-22T11:52:17.463Z,94238.53
2022-09-22T11:55:05.702Z,94241.53
2022-09-22T11:57:38.758Z,94235.13
2022-09-22T12:00:15.454Z,94235.97
2022-09-22T12:02:54.893Z,94241.06
2022-09-22T12:05:30.584Z,94252.44
2022-09-22T12:08:05.201Z,94242.72
2022-09-22T12:10:44.740Z,94247.94
2022-09-22T12:13:21.566Z,94252.72
2022-09-22T12:18:33.818Z,94236.13
2022-09-22T12:21:19.433Z,94236.34
2022-09-22T12:23:51.453Z,94236.59
2022-09-22T12:26:34.114Z,94233.56
2022-09-22T12:29:04.681Z,94221.81
2022-09-22T12:31:37.922Z,94228.31
2022-09-22T12:34:14.929Z,94217.31
2022-09-22T12:36:42.492Z,94229.69
2022-09-22T12:39:12.091Z,94230.72
2022-09-22T12:41:57.845Z,94223.84
2022-09-22T12:44:28.096Z,94231.69
2022-09-22T12:47:01.483Z,94229.88
2022-09-22T12:49:28.616Z,94234.22
2022-09-22T12:51:55.260Z,94231.75
2022-09-22T12:54:21.824Z,94233.94
2022-09-22T12:57:08.568Z,94223.44
2022-09-22T12:59:38.464Z,94225.75
2022-09-22T13:02:17.497Z,94239.34
2022-09-22T13:04:56.023Z,94224.47
2022-09-22T13:07:53.660Z,94229.16
2022-09-22T13:10:23.086Z,94228.56
2022-09-22T13:13:33.431Z,94234.50
2022-09-22T13:16:02.916Z,94221.91
2022-09-22T13:18:39.859Z,94213.06
2022-09-22T13:21:12.418Z,94213.16
2022-09-22T13:23:51.877Z,94208.91
2022-09-22T13:26:24.790Z,94204.28
2022-09-22T13:29:18.033Z,94210.44
2022-09-22T13:32:07.671Z,94201.97
2022-09-22T13:34:37.236Z,94200.44
2022-09-22T13:37:17.810Z,94195.78
2022-09-22T13:39:49.329Z,94193.03
2022-09-22T13:42:22.354Z,94201.16
2022-09-22T13:44:59.109Z,94218.63
2022-09-22T13:47:28.194Z,94213.63
2022-09-22T13:50:01.421Z,94219.38
2022-09-22T13:52:34.900Z,94214.81
2022-09-22T13:55:19.886Z,94213.81
2022-09-22T13:57:47.367Z,94231.69
2022-09-22T14:00:55.487Z,94221.78
2022-09-22T14:03:27.803Z,94229.38
2022-09-22T14:05:55.838Z,94228.06
2022-09-22T14:08:30.758Z,94227.09
2022-09-22T14:10:59.613Z,94232.28
2022-09-22T14:13:41.251Z,94229.69
2022-09-22T14:16:16.138Z,94233.34
2022-09-22T14:18:46.579Z,94234.03
2022-09-22T14:21:13.859Z,94240.28
2022-09-22T14:23:50.016Z,94235.44
2022-09-22T14:26:27.167Z,94236.72
2022-09-22T14:28:56.117Z,94236.16
2022-09-22T14:31:27.209Z,94236.28
2022-09-22T14:33:55.379Z,94233.81
2022-09-22T14:36:25.949Z,94234.44
2022-09-22T14:39:09.298Z,94240.31
2022-09-22T14:41:38.148Z,94242.25
2022-09-22T14:44:26.854Z,94245.78
2022-09-22T14:46:55.695Z,94237.31
2022-09-22T14:49:43.364Z,94248.19
2022-09-22T14:52:32.667Z,94247.31
2022-09-22T14:55:07.491Z,94246.50
2022-09-22T14:57:35.669Z,94244.28
2022-09-22T15:00:32.055Z,94245.13
2022-09-22T15:02:59.461Z,94240.44
2022-09-22T15:05:33.876Z,94246.69
2022-09-22T15:08:02.036Z,94242.13
2022-09-22T15:10:35.908Z,94242.50
2022-09-22T15:13:31.591Z,94244.41
2022-09-22T15:15:58.694Z,94248.31
2022-09-22T15:18:29.813Z,94246.31
2022-09-22T15:21:14.068Z,94249.72
2022-09-22T15:23:42.710Z,94256.66
2022-09-22T15:26:24.128Z,94260.91
2022-09-22T15:28:53.846Z,94268.66
2022-09-22T15:31:26.940Z,94269.88
2022-09-22T15:34:00.208Z,94269.41
2022-09-22T15:36:30.571Z,94265.41
2022-09-22T15:39:06.947Z,94284.03
2022-09-22T15:41:34.906Z,94288.81
2022-09-22T15:44:02.758Z,94290.66
2022-09-22T15:46:34.076Z,94280.13
2022-09-22T15:49:09.679Z,94288.00
2022-09-22T15:51:36.425Z,94278.00
2022-09-22T15:54:03.281Z,94277.59
2022-09-22T15:56:30.511Z,94279.28
2022-09-22T15:59:01.533Z,94278.56
2022-09-22T16:01:29.699Z,94277.94
2022-09-22T16:04:00.148Z,94266.59
2022-09-22T16:06:27.590Z,94284.03
2022-09-22T16:08:55.444Z,94288.97
2022-09-22T16:11:30.424Z,94279.44
2022-09-22T16:14:00.569Z,94282.00
2022-09-22T16:16:29.479Z,94279.16
2022-09-22T16:18:57.073Z,94273.50
2022-09-22T16:21:33.112Z,94274.69
2022-09-22T16:24:08.585Z,94279.66
2022-09-22T16:26:37.723Z,94274.00
2022-09-22T16:29:05.451Z,94276.00
2022-09-22T16:31:32.097Z,94283.69
2022-09-22T16:34:01.382Z,94282.16
2022-09-22T16:36:31.130Z,94285.94
2022-09-22T16:38:57.741Z,94281.28
2022-09-22T16:41:24.910Z,94286.47
2022-09-22T16:43:52.669Z,94293.41
2022-09-22T16:46:30.069Z,94292.59
2022-09-22T16:49:00.920Z,94298.88
2022-09-22T16:51:28.371Z,94294.38
2022-09-22T16:53:55.378Z,94296.31
2022-09-22T16:56:30.384Z,94300.09
2022-09-22T16:58:57.504Z,94306.25
2022-09-22T17:01:24.515Z,94300.66
2022-09-22T17:03:52.553Z,94290.66
2022-09-22T17:06:25.383Z,94301.66
2022-09-22T17:08:53.629Z,94297.22
2022-09-22T17:11:23.444Z,94295.75
2022-09-22T17:13:50.821Z,94303.53
2022-09-22T17:16:21.788Z,94311.00
2022-09-22T17:18:52.753Z,94300.72
2022-09-22T17:21:23.328Z,94305.13
2022-09-22T17:23:51.790Z,94311.19
2022-09-22T17:26:19.980Z,94314.00
2022-09-22T17:28:47.731Z,94308.66
2022-09-22T17:31:14.483Z,94317.44
2022-09-22T17:33:52.281Z,94319.38
2022-09-22T17:36:21.194Z,94324.41
2022-09-22T17:38:50.719Z,94328.63
2022-09-22T17:41:22.522Z,94321.13
2022-09-22T17:43:55.505Z,94333.44
2022-09-22T17:46:23.525Z,94335.25
2022-09-22T17:49:12.546Z,94333.72
2022-09-22T17:51:58.954Z,94333.69
2022-09-22T17:54:45.378Z,94333.94
2022-09-22T17:57:17.945Z,94341.78
2022-09-22T17:59:45.179Z,94341.00
2022-09-22T18:02:14.455Z,94337.28
2022-09-22T18:04:43.582Z,94338.28
2022-09-22T18:07:23.878Z,94333.09
2022-09-22T18:09:55.549Z,94339.94
2022-09-22T18:12:24.857Z,94352.72
2022-09-22T18:14:53.524Z,94345.13
2022-09-22T18:17:23.965Z,94351.91
2022-09-22T18:19:54.062Z,94356.03
2022-09-22T18:22:22.191Z,94360.91
2022-09-22T18:24:50.572Z,94363.72
2022-09-22T18:27:21.650Z,94364.03
2022-09-22T18:29:53.210Z,94362.69
2022-09-22T18:32:25.165Z,94367.66
2022-09-22T18:34:53.079Z,94369.06
2022-09-22T18:37:21.399Z,94373.91
2022-09-22T18:39:52.380Z,94370.38
2022-09-22T18:42:24.361Z,94369.75
2022-09-22T18:44:54.321Z,94359.34
2022-09-22T18:47:23.339Z,94357.78
2022-09-22T18:49:51.384Z,94370.97
2022-09-22T18:52:23.052Z,94359.47
2022-09-22T18:54:53.204Z,94366.00
2022-09-22T18:57:21.452Z,94361.56
2022-09-22T18:59:51.241Z,94360.06
2022-09-22T19:02:22.846Z,94351.25
2022-09-22T19:04:51.878Z,94355.72
2022-09-22T19:07:41.558Z,94357.53
2022-09-22T19:10:11.103Z,94343.66
2022-09-22T19:12:39.783Z,94366.63
2022-09-22T19:15:15.028Z,94372.22
2022-09-22T19:17:45.914Z,94368.81
2022-09-22T19:20:21.091Z,94365.44
2022-09-22T19:22:49.355Z,94363.53
2022-09-22T19:25:16.950Z,94358.16
2022-09-22T19:27:43.759Z,94360.78
2022-09-22T19:30:11.600Z,94360.53
2022-09-22T19:32:39.131Z,94367.72
2022-09-22T19:35:09.545Z,94368.50
2022-09-22T19:37:36.450Z,94370.34
2022-09-22T19:40:04.636Z,94363.59
2022-09-22T19:42:31.786Z,94358.88
2022-09-22T19:44:59.250Z,94365.63
2022-09-22T19:47:25.927Z,94358.69
2022-09-22T19:49:52.685Z,94368.00
2022-09-22T19:52:19.361Z,94366.28
2022-09-22T19:54:45.996Z,94364.91
2022-09-22T19:57:13.261Z,94368.63
2022-09-22T19:59:40.282Z,94372.84
2022-09-22T20:02:14.583Z,94378.66
2022-09-22T20:04:41.291Z,94382.56
2022-09-22T20:07:08.592Z,94389.50
2022-09-22T20:09:35.576Z,94390.91
2022-09-22T20:12:02.756Z,94388.28
2022-09-22T20:14:31.449Z,94388.91
2022-09-22T20:17:02.269Z,94390.72
2022-09-22T20:19:31.526Z,94393.44
2022-09-22T20:22:18.096Z,94387.31
2022-09-22T20:24:53.944Z,94382.97
2022-09-22T20:27:26.330Z,94394.63
2022-09-22T20:29:57.005Z,94388.69
2022-09-22T20:32:25.945Z,94382.16
2022-09-22T20:34:54.245Z,94383.59
2022-09-22T20:37:21.698Z,94383.53
2022-09-22T20:39:48.380Z,94385.50
2022-09-22T20:42:15.580Z,94385.44
2022-09-22T20:44:42.381Z,94384.88
2022-09-22T20:47:19.976Z,94385.63
2022-09-22T20:49:51.350Z,94390.09
2022-09-22T20:52:22.781Z,94397.53
2022-09-22T20:54:49.440Z,94398.09
2022-09-22T20:57:17.151Z,94401.59
2022-09-22T20:59:45.855Z,94386.75
2022-09-22T21:02:14.081Z,94395.28
2022-09-22T21:04:41.329Z,94388.75
2022-09-22T21:07:08.480Z,94395.94
2022-09-22T21:09:53.762Z,94392.75
2022-09-22T21:12:20.400Z,94403.84
2022-09-22T21:14:47.092Z,94392.22
2022-09-22T21:17:14.707Z,94399.41
2022-09-22T21:19:41.384Z,94402.06
2022-09-22T21:22:08.043Z,94408.47
2022-09-22T21:24:34.867Z,94408.59
2022-09-22T21:27:02.255Z,94409.69
2022-09-22T21:29:29.558Z,94401.59
2022-09-22T21:31:57.899Z,94400.69
2022-09-22T21:34:25.159Z,94399.69
2022-09-22T21:36:51.836Z,94403.78
2022-09-22T21:39:18.834Z,94407.88
2022-09-22T21:41:45.558Z,94405.59
2022-09-22T21:44:12.351Z,94404.63
2022-09-22T21:46:41.839Z,94402.03
2022-09-22T21:49:09.890Z,94395.59
2022-09-22T21:51:42.319Z,94389.75
2022-09-22T21:54:15.081Z,94411.44
2022-09-22T21:56:42.114Z,94403.41
2022-09-22T21:59:09.496Z,94401.44
2022-09-22T22:01:38.173Z,94411.44
2022-09-22T22:04:10.283Z,94408.25
2022-09-22T22:06:40.446Z,94407.97
2022-09-22T22:09:12.400Z,94402.59
2022-09-22T22:11:43.071Z,94402.63
2022-09-22T22:14:11.817Z,94391.81
2022-09-22T22:16:42.848Z,94387.75
2022-09-22T22:19:14.996Z,94395.47
2022-09-22T22:21:42.915Z,94389.44
2022-09-22T22:24:18.680Z,94387.28
2022-09-22T22:26:53.173Z,94389.97
2022-09-22T22:29:21.348Z,94381.94
2022-09-22T22:31:49.201Z,94382.00
2022-09-22T22:34:21.050Z,94380.59
2022-09-22T22:36:48.906Z,94379.31
2022-09-22T22:39:15.773Z,94381.50
2022-09-22T22:41:42.457Z,94388.22
2022-09-22T22:44:09.146Z,94376.91
2022-09-22T22:46:36.323Z,94381.53
2022-09-22T22:49:03.373Z,94377.09
2022-09-22T22:51:30.093Z,94373.03
2022-09-22T22:53:56.832Z,94377.50
2022-09-22T22:56:26.524Z,94377.41
2022-09-22T22:58:53.394Z,94373.09
2022-09-22T23:01:28.129Z,94372.38
2022-09-22T23:03:58.819Z,94371.59
2022-09-22T23:06:31.657Z,94366.72
2022-09-22T23:08:58.603Z,94368.38
2022-09-22T23:11:30.445Z,94362.53
2022-09-22T23:14:03.237Z,94371.09
2022-09-22T23:16:36.320Z,94368.88
2022-09-22T23:19:09.353Z,94358.22
2022-09-22T23:21:36.967Z,94368.22
2022-09-22T23:24:05.291Z,94367.84
2022-09-22T23:26:32.182Z,94355.84
2022-09-22T23:28:59.646Z,94361.41
2022-09-22T23:31:26.455Z,94362.56
2022-09-22T23:33:53.678Z,94365.44
2022-09-22T23:36:24.186Z,94367.09
2022-09-22T23:39:04.638Z,94361.75
2022-09-22T23:41:33.374Z,94361.50
2022-09-22T23:44:00.407Z,94355.13
2022-09-22T23:46:27.097Z,94357.81
2022-09-22T23:48:55.759Z,94345.22
2022-09-22T23:51:22.822Z,94349.81
2022-09-22T23:53:49.595Z,94348.34
2022-09-22T23:56:16.576Z,94340.47
2022-09-22T23:58:43.215Z,94343.25
